createdAt,value
2023-04-16T00:01:35.799Z,96.60
2023-04-16T00:04:03.266Z,96.60
2023-04-16T00:07:46.442Z,96.60
2023-04-16T00:10:13.881Z,96.60
2023-04-16T00:12:41.065Z,96.60
2023-04-16T00:15:08.202Z,96.60
2023-04-16T00:17:34.964Z,96.60
2023-04-16T00:20:01.880Z,96.60
2023-04-16T00:22:28.620Z,96.60
2023-04-16T00:24:55.427Z,96.60
2023-04-16T00:27:22.229Z,96.60
2023-04-16T00:29:49.020Z,96.60
2023-04-16T00:32:16.279Z,96.60
2023-04-16T00:34:43.048Z,96.60
2023-04-16T00:37:09.810Z,96.60
2023-04-16T00:39:36.581Z,96.60
2023-04-16T00:42:03.450Z,96.60
2023-04-16T00:44:30.453Z,96.60
2023-04-16T00:46:57.750Z,96.60
2023-04-16T00:49:25.295Z,96.60
2023-04-16T00:51:52.148Z,96.60
2023-04-16T00:54:19.732Z,96.60
2023-04-16T00:56:47.007Z,96.60
2023-04-16T00:59:15.366Z,96.60
2023-04-16T01:01:42.251Z,96.60
2023-04-16T01:04:11.145Z,96.60
2023-04-16T01:06:38.586Z,96.60
2023-04-16T01:09:05.810Z,96.60
2023-04-16T01:11:32.791Z,96.60
2023-04-16T01:13:59.626Z,96.60
2023-04-16T01:16:26.783Z,96.60
2023-04-16T01:18:53.634Z,96.60
2023-04-16T01:21:20.587Z,96.60
2023-04-16T01:23:47.259Z,96.60
2023-04-16T01:26:14.096Z,96.60
2023-04-16T01:28:41.903Z,96.60
2023-04-16T01:31:08.670Z,96.60
2023-04-16T01:34:05.248Z,96.60
2023-04-16T01:36:32.852Z,96.60
2023-04-16T01:38:59.625Z,96.60
2023-04-16T01:41:26.852Z,96.60
2023-04-16T01:43:53.616Z,96.60
2023-04-16T01:46:33.233Z,96.60
2023-04-16T01:49:01.546Z,96.60
2023-04-16T01:51:28.550Z,96.60
2023-04-16T01:53:55.931Z,96.60
2023-04-16T01:56:22.691Z,96.60
2023-04-16T01:58:49.728Z,96.60
2023-04-16T02:01:18.316Z,96.60
2023-04-16T02:03:47.137Z,96.60
2023-04-16T02:06:15.471Z,96.60
2023-04-16T02:08:42.273Z,96.60
2023-04-16T02:11:09.237Z,96.60
2023-04-16T02:13:46.946Z,96.60
2023-04-16T02:16:14.562Z,96.60
2023-04-16T02:18:49.514Z,96.60
2023-04-16T02:21:18.194Z,96.60
2023-04-16T02:23:47.754Z,96.60
2023-04-16T02:26:14.556Z,96.60
2023-04-16T02:28:41.619Z,96.60
2023-04-16T02:31:11.095Z,96.60
2023-04-16T02:33:43.403Z,96.60
2023-04-16T02:36:11.235Z,96.60
2023-04-16T02:38:38.131Z,96.60
2023-04-16T02:41:05.228Z,96.60
2023-04-16T02:43:33.709Z,96.60
2023-04-16T02:46:01.295Z,96.60
2023-04-16T02:48:28.152Z,96.60
2023-04-16T02:50:54.908Z,96.60
2023-04-16T02:53:21.788Z,96.60
2023-04-16T02:55:55.494Z,96.60
2023-04-16T02:58:24.151Z,96.60
2023-04-16T03:00:52.015Z,96.60
2023-04-16T03:03:19.128Z,96.60
2023-04-16T03:05:45.975Z,96.60
2023-04-16T03:08:12.941Z,96.60
2023-04-16T03:10:40.068Z,96.60
2023-04-16T03:13:07.123Z,96.60
2023-04-16T03:15:33.983Z,96.60
2023-04-16T03:18:00.803Z,96.60
2023-04-16T03:20:28.070Z,96.60
2023-04-16T03:22:55.925Z,96.60
2023-04-16T03:25:22.710Z,96.60
2023-04-16T03:27:49.543Z,96.60
2023-04-16T03:30:16.977Z,96.60
2023-04-16T03:32:44.082Z,96.60
2023-04-16T03:35:12.570Z,96.60
2023-04-16T03:37:39.379Z,96.60
2023-04-16T03:40:07.258Z,96.60
2023-04-16T03:42:34.551Z,96.60
2023-04-16T03:45:02.481Z,96.60
2023-04-16T03:47:29.397Z,96.60
2023-04-16T03:49:59.603Z,96.60
2023-04-16T03:52:28.128Z,96.60
2023-04-16T03:54:55.178Z,96.60
2023-04-16T03:57:26.219Z,96.60
2023-04-16T03:59:56.470Z,96.60
2023-04-16T04:02:24.422Z,96.60
2023-04-16T04:04:51.624Z,96.60
2023-04-16T04:07:18.609Z,96.60
2023-04-16T04:09:45.315Z,96.60
2023-04-16T04:12:12.078Z,96.60
2023-04-16T04:14:40.826Z,96.60
2023-04-16T04:17:08.577Z,96.60
2023-04-16T04:19:35.360Z,96.60
2023-04-16T04:22:03.379Z,96.60
2023-04-16T04:24:30.151Z,96.60
2023-04-16T04:26:58.185Z,96.60
2023-04-16T04:29:25.030Z,96.60
2023-04-16T04:31:52.017Z,96.60
2023-04-16T04:34:19.211Z,96.60
2023-04-16T04:36:46.312Z,96.60
2023-04-16T04:39:14.236Z,96.60
2023-04-16T04:41:43.528Z,96.60
2023-04-16T04:44:10.642Z,96.60
2023-04-16T04:46:37.486Z,96.60
2023-04-16T04:49:04.452Z,96.60
2023-04-16T04:51:31.825Z,96.60
2023-04-16T04:53:58.863Z,96.60
2023-04-16T04:56:25.627Z,96.60
2023-04-16T04:58:52.381Z,96.60
2023-04-16T05:01:20.438Z,96.60
2023-04-16T05:03:47.364Z,96.60
2023-04-16T05:06:14.200Z,96.60
2023-04-16T05:08:40.950Z,96.60
2023-04-16T05:11:07.756Z,96.60
2023-04-16T05:13:34.520Z,96.60
2023-04-16T05:16:01.352Z,96.60
2023-04-16T05:18:28.088Z,96.60
2023-04-16T05:20:55.947Z,96.60
2023-04-16T05:23:22.745Z,96.60
2023-04-16T05:25:49.511Z,96.60
2023-04-16T05:28:16.251Z,96.60
2023-04-16T05:30:43.084Z,96.60
2023-04-16T05:33:09.832Z,96.60
2023-04-16T05:35:36.600Z,96.60
2023-04-16T05:38:04.401Z,96.60
2023-04-16T05:40:31.937Z,96.60
2023-04-16T05:42:58.687Z,96.60
2023-04-16T05:45:27.485Z,96.60
2023-04-16T05:47:54.986Z,96.60
2023-04-16T05:50:21.854Z,96.60
2023-04-16T05:52:48.590Z,96.60
2023-04-16T05:55:15.374Z,96.60
2023-04-16T05:57:42.124Z,96.60
2023-04-16T06:00:09.294Z,96.60
2023-04-16T06:02:42.071Z,96.60
2023-04-16T06:05:09.202Z,96.60
2023-04-16T06:07:36.044Z,96.60
2023-04-16T06:10:02.824Z,96.60
2023-04-16T06:12:29.686Z,96.60
2023-04-16T06:14:56.422Z,96.60
2023-04-16T06:17:23.283Z,96.60
2023-04-16T06:19:50.058Z,96.60
2023-04-16T06:22:16.810Z,96.60
2023-04-16T06:24:43.741Z,96.60
2023-04-16T06:27:10.523Z,96.60
2023-04-16T06:29:41.616Z,96.60
2023-04-16T06:32:08.812Z,96.60
2023-04-16T06:34:35.857Z,96.60
2023-04-16T06:37:02.669Z,96.60
2023-04-16T06:39:29.429Z,96.60
2023-04-16T06:41:56.194Z,96.60
2023-04-16T06:44:23.135Z,96.60
2023-04-16T06:46:51.003Z,96.60
2023-04-16T06:49:17.864Z,96.60
2023-04-16T06:51:44.705Z,96.60
2023-04-16T06:54:11.428Z,96.60
2023-04-16T06:56:38.195Z,96.60
2023-04-16T06:59:05.023Z,96.60
2023-04-16T07:01:31.860Z,96.60
2023-04-16T07:03:59.029Z,96.60
2023-04-16T07:06:27.195Z,96.60
2023-04-16T07:08:53.955Z,96.60
2023-04-16T07:11:21.087Z,96.60
2023-04-16T07:13:47.940Z,96.60
2023-04-16T07:16:14.733Z,96.60
2023-04-16T07:18:41.515Z,96.60
2023-04-16T07:21:08.385Z,96.60
2023-04-16T07:23:35.291Z,96.60
2023-04-16T07:26:02.003Z,96.60
2023-04-16T07:28:28.717Z,96.60
2023-04-16T07:30:55.544Z,96.60
2023-04-16T07:33:22.267Z,96.60
2023-04-16T07:35:49.109Z,96.60
2023-04-16T07:38:16.463Z,96.60
2023-04-16T07:40:43.232Z,96.60
2023-04-16T07:43:10.620Z,96.60
2023-04-16T07:45:37.396Z,96.60
2023-04-16T07:48:05.241Z,96.60
2023-04-16T07:50:31.999Z,96.60
2023-04-16T07:52:58.717Z,96.60
2023-04-16T07:55:25.758Z,96.60
2023-04-16T07:57:52.489Z,96.60
2023-04-16T08:00:19.362Z,96.60
2023-04-16T08:02:46.482Z,96.60
2023-04-16T08:05:13.492Z,96.60
2023-04-16T08:07:40.580Z,96.60
2023-04-16T08:10:08.185Z,96.60
2023-04-16T08:12:35.810Z,96.60
2023-04-16T08:15:02.703Z,96.10
2023-04-16T08:17:30.150Z,96.60
2023-04-16T08:19:57.085Z,96.50
2023-04-16T08:22:23.976Z,96.10
2023-04-16T08:24:50.717Z,95.00
2023-04-16T08:27:19.393Z,95.30
2023-04-16T08:29:47.933Z,95.90
2023-04-16T08:32:14.767Z,96.60
2023-04-16T08:34:42.228Z,96.60
2023-04-16T08:37:09.373Z,95.40
2023-04-16T08:39:36.336Z,94.70
2023-04-16T08:42:06.062Z,94.60
2023-04-16T08:44:35.320Z,95.10
2023-04-16T08:47:02.804Z,94.00
2023-04-16T08:49:29.829Z,93.70
2023-04-16T08:51:57.113Z,93.30
2023-04-16T08:54:56.709Z,92.70
2023-04-16T08:57:26.794Z,93.20
2023-04-16T08:59:55.879Z,92.00
2023-04-16T09:02:23.570Z,91.80
2023-04-16T09:04:52.190Z,91.70
2023-04-16T09:07:20.670Z,92.00
2023-04-16T09:09:49.975Z,91.80
2023-04-16T09:12:17.615Z,93.00
2023-04-16T09:14:49.442Z,92.80
2023-04-16T09:17:16.799Z,93.00
2023-04-16T09:19:44.000Z,92.60
2023-04-16T09:22:11.386Z,92.10
2023-04-16T09:24:38.652Z,92.80
2023-04-16T09:27:06.408Z,92.90
2023-04-16T09:29:36.131Z,92.50
2023-04-16T09:32:08.234Z,92.90
2023-04-16T09:34:54.403Z,92.90
2023-04-16T09:37:21.305Z,93.60
2023-04-16T09:39:59.143Z,93.10
2023-04-16T09:42:31.735Z,92.60
2023-04-16T09:45:01.376Z,92.40
2023-04-16T09:47:42.956Z,91.50
2023-04-16T09:50:16.468Z,92.00
2023-04-16T09:52:48.095Z,92.60
2023-04-16T09:55:15.345Z,91.60
2023-04-16T09:57:42.099Z,92.30
2023-04-16T10:00:10.457Z,91.80
2023-04-16T10:02:41.981Z,91.30
2023-04-16T10:05:09.653Z,91.70
2023-04-16T10:07:37.352Z,92.00
2023-04-16T10:10:05.108Z,92.20
2023-04-16T10:12:33.125Z,92.00
2023-04-16T10:14:59.919Z,91.70
2023-04-16T10:17:29.933Z,91.70
2023-04-16T10:19:58.517Z,92.30
2023-04-16T10:22:26.241Z,91.70
2023-04-16T10:24:53.939Z,92.30
2023-04-16T10:27:21.026Z,92.40
2023-04-16T10:29:48.776Z,92.90
2023-04-16T10:32:17.271Z,93.60
2023-04-16T10:34:44.316Z,94.10
2023-04-16T10:37:11.058Z,94.20
2023-04-16T10:39:38.461Z,94.40
2023-04-16T10:42:10.557Z,94.70
2023-04-16T10:44:37.903Z,95.00
2023-04-16T10:47:11.918Z,94.70
2023-04-16T10:49:38.826Z,94.90
2023-04-16T10:52:13.555Z,94.80
2023-04-16T10:54:41.070Z,94.50
2023-04-16T10:57:17.851Z,94.20
2023-04-16T10:59:45.970Z,94.20
2023-04-16T11:02:20.664Z,94.40
2023-04-16T11:04:49.543Z,93.80
2023-04-16T11:07:21.549Z,93.90
2023-04-16T11:09:54.096Z,94.70
2023-04-16T11:12:38.103Z,94.20
2023-04-16T11:15:12.943Z,93.20
2023-04-16T11:17:51.674Z,93.40
2023-04-16T11:20:26.527Z,93.80
2023-04-16T11:22:54.847Z,94.00
2023-04-16T11:25:26.295Z,93.70
2023-04-16T11:27:53.849Z,93.80
2023-04-16T11:30:38.240Z,94.20
2023-04-16T11:33:07.572Z,94.10
2023-04-16T11:35:34.321Z,94.10
2023-04-16T11:38:01.176Z,94.40
2023-04-16T11:40:31.751Z,94.40
2023-04-16T11:43:12.987Z,94.00
2023-04-16T11:45:53.334Z,94.20
2023-04-16T11:48:20.141Z,94.70
2023-04-16T11:50:58.060Z,94.70
2023-04-16T11:53:25.831Z,94.80
2023-04-16T11:55:52.678Z,95.40
2023-04-16T11:58:20.101Z,95.40
2023-04-16T12:00:48.883Z,95.80
2023-04-16T12:03:16.096Z,96.10
2023-04-16T12:05:43.213Z,95.70
2023-04-16T12:08:11.831Z,95.40
2023-04-16T12:10:54.697Z,95.60
2023-04-16T12:13:21.894Z,95.70
2023-04-16T12:15:50.980Z,95.90
2023-04-16T12:18:20.336Z,95.30
2023-04-16T12:20:47.551Z,96.00
2023-04-16T12:23:24.505Z,95.80
2023-04-16T12:25:52.220Z,94.50
2023-04-16T12:28:48.147Z,95.30
2023-04-16T12:31:15.978Z,94.30
2023-04-16T12:33:42.841Z,94.20
2023-04-16T12:36:19.542Z,94.50
2023-04-16T12:38:46.657Z,94.00
2023-04-16T12:41:13.367Z,94.30
2023-04-16T12:43:40.392Z,93.90
2023-04-16T12:46:07.211Z,94.50
2023-04-16T12:48:34.569Z,94.30
2023-04-16T12:51:01.885Z,94.40
2023-04-16T12:53:28.877Z,94.40
2023-04-16T12:55:55.889Z,93.70
2023-04-16T12:58:22.668Z,93.70
2023-04-16T13:00:49.446Z,93.40
2023-04-16T13:03:16.759Z,93.20
2023-04-16T13:05:43.706Z,91.90
2023-04-16T13:08:10.851Z,91.80
2023-04-16T13:10:38.127Z,90.80
2023-04-16T13:13:06.045Z,89.90
2023-04-16T13:15:32.837Z,88.90
2023-04-16T13:17:59.738Z,87.90
2023-04-16T13:20:26.571Z,86.50
2023-04-16T13:22:53.956Z,86.90
2023-04-16T13:25:20.672Z,87.00
2023-04-16T13:27:47.579Z,85.20
2023-04-16T13:30:14.617Z,86.60
2023-04-16T13:32:41.526Z,87.20
2023-04-16T13:35:10.381Z,86.50
2023-04-16T13:37:37.138Z,86.50
2023-04-16T13:40:04.116Z,86.10
2023-04-16T13:42:32.349Z,86.80
2023-04-16T13:44:59.148Z,86.70
2023-04-16T13:47:26.167Z,87.00
2023-04-16T13:49:52.901Z,87.30
2023-04-16T13:52:19.707Z,88.20
2023-04-16T13:54:46.648Z,88.00
2023-04-16T13:57:19.824Z,87.80
2023-04-16T13:59:46.598Z,86.60
2023-04-16T14:02:13.627Z,87.20
2023-04-16T14:04:40.580Z,87.20
2023-04-16T14:07:07.338Z,86.60
2023-04-16T14:09:34.063Z,86.60
2023-04-16T14:12:00.957Z,85.50
2023-04-16T14:14:27.950Z,86.20
2023-04-16T14:16:55.104Z,85.90
2023-04-16T14:19:22.035Z,85.90
2023-04-16T14:21:48.973Z,86.10
2023-04-16T14:24:15.775Z,84.80
2023-04-16T14:26:45.778Z,85.40
2023-04-16T14:29:12.772Z,86.20
2023-04-16T14:31:39.575Z,85.60
2023-04-16T14:34:07.589Z,85.80
2023-04-16T14:36:36.452Z,85.90
2023-04-16T14:39:03.629Z,86.70
2023-04-16T14:41:31.366Z,85.90
2023-04-16T14:43:59.518Z,85.50
2023-04-16T14:46:27.121Z,85.60
2023-04-16T14:48:53.891Z,85.00
2023-04-16T14:51:20.617Z,85.80
2023-04-16T14:53:47.496Z,85.00
2023-04-16T14:56:14.249Z,84.80
2023-04-16T14:58:42.755Z,85.80
2023-04-16T15:01:09.822Z,86.30
2023-04-16T15:03:36.827Z,84.90
2023-04-16T15:06:03.744Z,85.10
2023-04-16T15:08:30.627Z,85.80
2023-04-16T15:10:57.479Z,85.90
2023-04-16T15:13:24.258Z,86.50
2023-04-16T15:15:51.274Z,86.90
2023-04-16T15:18:18.083Z,87.30
2023-04-16T15:20:45.070Z,87.30
2023-04-16T15:23:11.926Z,87.20
2023-04-16T15:25:38.686Z,88.40
2023-04-16T15:28:06.395Z,88.40
2023-04-16T15:30:33.327Z,88.80
2023-04-16T15:33:00.377Z,89.10
2023-04-16T15:35:27.186Z,89.60
2023-04-16T15:37:55.251Z,89.60
2023-04-16T15:40:22.721Z,89.80
2023-04-16T15:42:51.403Z,90.60
2023-04-16T15:45:18.757Z,90.60
2023-04-16T15:47:51.587Z,91.30
2023-04-16T15:50:19.873Z,92.00
2023-04-16T15:52:47.509Z,92.10
2023-04-16T15:55:15.079Z,91.60
2023-04-16T15:57:41.866Z,92.00
2023-04-16T16:00:17.015Z,92.30
2023-04-16T16:02:46.752Z,92.90
2023-04-16T16:05:14.406Z,93.30
2023-04-16T16:07:41.932Z,93.40
2023-04-16T16:10:10.406Z,93.20
2023-04-16T16:12:37.663Z,92.50
2023-04-16T16:15:05.008Z,92.50
2023-04-16T16:17:32.255Z,93.10
2023-04-16T16:19:59.371Z,93.10
2023-04-16T16:22:26.326Z,92.90
2023-04-16T16:24:55.658Z,93.00
2023-04-16T16:27:22.860Z,93.50
2023-04-16T16:29:49.800Z,93.60
2023-04-16T16:32:16.658Z,93.40
2023-04-16T16:34:43.409Z,93.60
2023-04-16T16:37:10.695Z,94.60
2023-04-16T16:39:38.711Z,94.80
2023-04-16T16:42:05.994Z,95.80
2023-04-16T16:44:32.828Z,96.00
2023-04-16T16:46:59.796Z,96.30
2023-04-16T16:49:26.563Z,96.60
2023-04-16T16:51:53.291Z,96.60
2023-04-16T16:54:20.046Z,96.60
2023-04-16T16:56:47.216Z,96.60
2023-04-16T16:59:14.037Z,96.60
2023-04-16T17:01:41.061Z,96.60
2023-04-16T17:04:09.031Z,96.60
2023-04-16T17:06:36.718Z,96.60
2023-04-16T17:09:03.940Z,96.60
2023-04-16T17:11:30.946Z,96.60
2023-04-16T17:13:57.694Z,96.60
2023-04-16T17:16:24.487Z,96.60
2023-04-16T17:18:51.301Z,96.60
2023-04-16T17:21:18.193Z,96.60
2023-04-16T17:23:44.914Z,96.60
2023-04-16T17:26:11.699Z,96.60
2023-04-16T17:28:38.473Z,96.60
2023-04-16T17:31:08.272Z,96.60
2023-04-16T17:33:35.499Z,96.60
2023-04-16T17:36:02.231Z,96.60
2023-04-16T17:38:29.074Z,96.60
2023-04-16T17:40:57.135Z,96.60
2023-04-16T17:43:24.224Z,96.60
2023-04-16T17:45:51.076Z,96.60
2023-04-16T17:48:17.845Z,96.60
2023-04-16T17:50:44.694Z,96.60
2023-04-16T17:53:11.514Z,96.60
2023-04-16T17:55:38.334Z,96.60
2023-04-16T17:58:05.116Z,96.60
2023-04-16T18:00:31.919Z,96.60
2023-04-16T18:02:59.829Z,96.60
2023-04-16T18:05:27.430Z,96.60
2023-04-16T18:07:55.410Z,96.60
2023-04-16T18:10:22.343Z,96.60
2023-04-16T18:12:49.187Z,96.60
2023-04-16T18:15:16.278Z,96.60
2023-04-16T18:17:44.029Z,96.60
2023-04-16T18:20:12.589Z,96.60
2023-04-16T18:22:40.006Z,96.60
2023-04-16T18:25:07.675Z,96.60
2023-04-16T18:27:34.392Z,96.60
2023-04-16T18:30:01.300Z,96.60
2023-04-16T18:32:31.135Z,96.60
2023-04-16T18:34:58.226Z,96.60
2023-04-16T18:37:24.979Z,96.60
2023-04-16T18:39:51.753Z,96.60
2023-04-16T18:42:18.465Z,96.60
2023-04-16T18:44:51.878Z,96.60
2023-04-16T18:47:18.954Z,96.60
2023-04-16T18:49:45.768Z,96.60
2023-04-16T18:52:12.765Z,96.60
2023-04-16T18:54:40.724Z,96.60
2023-04-16T18:57:07.475Z,96.60
2023-04-16T18:59:34.207Z,96.60
2023-04-16T19:02:01.098Z,96.60
2023-04-16T19:04:27.918Z,96.60
2023-04-16T19:06:54.756Z,96.60
2023-04-16T19:09:21.544Z,96.60
2023-04-16T19:11:50.476Z,96.60
2023-04-16T19:14:17.370Z,96.60
2023-04-16T19:16:44.207Z,96.60
2023-04-16T19:19:11.330Z,96.60
2023-04-16T19:21:38.376Z,96.60
2023-04-16T19:24:05.480Z,96.60
2023-04-16T19:26:32.254Z,96.60
2023-04-16T19:28:59.581Z,96.60
2023-04-16T19:31:26.788Z,96.60
2023-04-16T19:33:53.518Z,96.60
2023-04-16T19:36:20.274Z,96.60
2023-04-16T19:38:47.028Z,96.60
2023-04-16T19:41:13.867Z,96.60
2023-04-16T19:43:40.737Z,96.60
2023-04-16T19:46:07.633Z,96.60
2023-04-16T19:48:34.583Z,96.60
2023-04-16T19:51:03.450Z,96.60
2023-04-16T19:53:30.346Z,96.60
2023-04-16T19:55:57.256Z,96.60
2023-04-16T19:58:24.200Z,96.60
2023-04-16T20:00:51.100Z,96.60
2023-04-16T20:03:17.975Z,96.60
2023-04-16T20:05:48.489Z,96.60
2023-04-16T20:08:15.766Z,96.60
2023-04-16T20:10:42.703Z,96.60
2023-04-16T20:13:11.990Z,96.60
2023-04-16T20:15:38.830Z,96.60
2023-04-16T20:18:07.518Z,96.60
2023-04-16T20:20:38.013Z,96.60
2023-04-16T20:23:05.237Z,96.60
2023-04-16T20:25:32.040Z,96.60
2023-04-16T20:27:58.832Z,96.60
2023-04-16T20:30:29.305Z,96.60
2023-04-16T20:32:56.635Z,96.60
2023-04-16T20:35:23.496Z,96.60
2023-04-16T20:37:50.220Z,96.60
2023-04-16T20:40:17.118Z,96.60
2023-04-16T20:42:46.313Z,96.60
2023-04-16T20:45:13.325Z,96.60
2023-04-16T20:47:40.209Z,96.60
2023-04-16T20:50:07.685Z,96.60
2023-04-16T20:52:34.520Z,96.60
2023-04-16T20:55:01.474Z,96.60
2023-04-16T20:57:29.648Z,96.60
2023-04-16T20:59:56.464Z,96.60
2023-04-16T21:02:24.255Z,96.60
2023-04-16T21:04:51.287Z,96.60
2023-04-16T21:07:18.124Z,96.60
2023-04-16T21:09:44.888Z,96.60
2023-04-16T21:12:11.649Z,96.60
2023-04-16T21:14:38.412Z,96.60
2023-04-16T21:17:05.141Z,96.60
2023-04-16T21:19:31.837Z,96.60
2023-04-16T21:21:58.601Z,96.60
2023-04-16T21:24:25.454Z,96.60
2023-04-16T21:26:52.333Z,96.60
2023-04-16T21:29:19.215Z,96.60
2023-04-16T21:31:46.268Z,96.60
2023-04-16T21:34:17.198Z,96.60
2023-04-16T21:36:44.547Z,96.60
2023-04-16T21:39:11.645Z,96.60
2023-04-16T21:41:38.783Z,96.60
2023-04-16T21:44:05.598Z,96.60
2023-04-16T21:46:32.412Z,96.60
2023-04-16T21:48:59.208Z,96.60
2023-04-16T21:51:28.985Z,96.60
2023-04-16T21:53:56.853Z,96.60
2023-04-16T21:56:24.356Z,96.60
2023-04-16T21:58:51.112Z,96.60
2023-04-16T22:01:17.922Z,96.60
2023-04-16T22:03:47.378Z,96.60
2023-04-16T22:06:16.574Z,96.60
2023-04-16T22:08:43.308Z,96.60
2023-04-16T22:11:10.174Z,96.60
2023-04-16T22:13:37.099Z,96.60
2023-04-16T22:16:04.056Z,96.60
2023-04-16T22:18:33.764Z,96.60
2023-04-16T22:21:01.311Z,96.60
2023-04-16T22:23:28.005Z,96.60
2023-04-16T22:25:56.016Z,96.60
2023-04-16T22:28:23.325Z,96.60
2023-04-16T22:30:50.430Z,96.60
2023-04-16T22:33:17.567Z,96.60
2023-04-16T22:35:44.445Z,96.60
2023-04-16T22:38:11.296Z,96.60
2023-04-16T22:40:38.077Z,96.60
2023-04-16T22:43:05.258Z,96.60
2023-04-16T22:45:32.005Z,96.60
2023-04-16T22:47:58.838Z,96.60
2023-04-16T22:50:25.720Z,96.60
2023-04-16T22:52:52.441Z,96.60
2023-04-16T22:55:19.388Z,96.60
2023-04-16T22:57:47.387Z,96.60
2023-04-16T23:00:17.748Z,96.60
2023-04-16T23:02:45.226Z,96.60
2023-04-16T23:05:12.231Z,96.60
2023-04-16T23:07:39.182Z,96.60
2023-04-16T23:10:08.243Z,96.60
2023-04-16T23:12:37.255Z,96.60
2023-04-16T23:15:06.353Z,96.60
2023-04-16T23:17:33.855Z,96.60
2023-04-16T23:20:00.834Z,96.60
2023-04-16T23:22:27.720Z,96.60
2023-04-16T23:24:54.623Z,96.60
2023-04-16T23:27:21.375Z,96.60
2023-04-16T23:29:48.129Z,96.60
2023-04-16T23:32:15.248Z,96.60
2023-04-16T23:34:42.099Z,96.60
2023-04-16T23:37:09.004Z,96.60
2023-04-16T23:39:35.787Z,96.60
2023-04-16T23:42:03.081Z,96.60
2023-04-16T23:44:29.880Z,96.60
2023-04-16T23:46:57.294Z,96.60
2023-04-16T23:49:24.419Z,96.60
2023-04-16T23:51:51.386Z,96.60
2023-04-16T23:54:18.381Z,96.60
2023-04-16T23:56:45.477Z,96.60
2023-04-16T23:59:12.760Z,96.60
